sensor_id;sensor_type;location;lat;lon;timestamp;P1;durP1;ratioP1;P2;durP2;ratioP2
26040;SDS011;13816;53.628;9.950;2022-09-17T00:02:14;36.77;;;5.47;;
26040;SDS011;13816;53.628;9.950;2022-09-17T00:04:40;37.37;;;6.20;;
26040;SDS011;13816;53.628;9.950;2022-09-17T00:07:06;51.60;;;6.50;;
26040;SDS011;13816;53.628;9.950;2022-09-17T00:09:32;25.17;;;5.87;;
26040;SDS011;13816;53.628;9.950;2022-09-17T00:11:58;26.17;;;5.63;;
26040;SDS011;13816;53.628;9.950;2022-09-17T00:14:30;32.57;;;5.53;;
26040;SDS011;13816;53.628;9.950;2022-09-17T00:17:09;33.53;;;6.07;;
26040;SDS011;13816;53.628;9.950;2022-09-17T00:19:38;27.27;;;6.17;;
26040;SDS011;13816;53.628;9.950;2022-09-17T00:22:04;34.10;;;6.13;;
26040;SDS011;13816;53.628;9.950;2022-09-17T00:24:31;28.67;;;5.83;;
26040;SDS011;13816;53.628;9.950;2022-09-17T00:26:57;23.17;;;5.70;;
26040;SDS011;13816;53.628;9.950;2022-09-17T00:29:23;32.17;;;5.20;;
26040;SDS011;13816;53.628;9.950;2022-09-17T00:31:50;30.27;;;5.33;;
26040;SDS011;13816;53.628;9.950;2022-09-17T00:34:16;41.53;;;5.77;;
26040;SDS011;13816;53.628;9.950;2022-09-17T00:39:27;36.53;;;6.00;;
26040;SDS011;13816;53.628;9.950;2022-09-17T00:41:53;19.33;;;4.97;;
26040;SDS011;13816;53.628;9.950;2022-09-17T04:47:38;16.50;;;3.90;;
26040;SDS011;13816;53.628;9.950;2022-09-17T04:50:05;23.53;;;3.90;;
26040;SDS011;13816;53.628;9.950;2022-09-17T04:52:34;25.00;;;3.20;;
26040;SDS011;13816;53.628;9.950;2022-09-17T04:55:00;21.87;;;4.00;;
26040;SDS011;13816;53.628;9.950;2022-09-17T06:39:18;13.77;;;3.77;;
26040;SDS011;13816;53.628;9.950;2022-09-17T06:41:44;20.93;;;3.57;;
26040;SDS011;13816;53.628;9.950;2022-09-17T06:44:10;13.70;;;3.00;;
26040;SDS011;13816;53.628;9.950;2022-09-17T06:46:36;17.83;;;3.00;;
26040;SDS011;13816;53.628;9.950;2022-09-17T06:49:05;16.10;;;2.73;;
26040;SDS011;13816;53.628;9.950;2022-09-17T06:51:31;10.63;;;2.77;;
26040;SDS011;13816;53.628;9.950;2022-09-17T06:53:58;14.57;;;2.92;;
26040;SDS011;13816;53.628;9.950;2022-09-17T06:56:24;12.47;;;2.23;;
26040;SDS011;13816;53.628;9.950;2022-09-17T07:04:41;36.30;;;2.90;;
26040;SDS011;13816;53.628;9.950;2022-09-17T08:12:30;9.33;;;2.37;;
26040;SDS011;13816;53.628;9.950;2022-09-17T08:15:00;12.20;;;2.00;;
26040;SDS011;13816;53.628;9.950;2022-09-17T08:17:29;14.53;;;2.73;;
26040;SDS011;13816;53.628;9.950;2022-09-17T08:19:56;13.00;;;2.57;;
26040;SDS011;13816;53.628;9.950;2022-09-17T08:22:22;15.23;;;2.13;;
26040;SDS011;13816;53.628;9.950;2022-09-17T08:24:48;11.60;;;2.77;;
26040;SDS011;13816;53.628;9.950;2022-09-17T08:27:16;13.27;;;2.30;;
26040;SDS011;13816;53.628;9.950;2022-09-17T08:29:42;12.33;;;1.97;;
26040;SDS011;13816;53.628;9.950;2022-09-17T08:32:08;7.40;;;2.27;;
26040;SDS011;13816;53.628;9.950;2022-09-17T08:34:34;21.60;;;3.30;;
26040;SDS011;13816;53.628;9.950;2022-09-17T08:37:01;10.03;;;2.10;;
26040;SDS011;13816;53.628;9.950;2022-09-17T08:39:27;9.33;;;1.60;;
26040;SDS011;13816;53.628;9.950;2022-09-17T08:44:39;9.37;;;2.00;;
26040;SDS011;13816;53.628;9.950;2022-09-17T08:47:17;12.27;;;2.60;;
26040;SDS011;13816;53.628;9.950;2022-09-17T08:49:53;20.13;;;2.30;;
26040;SDS011;13816;53.628;9.950;2022-09-17T08:55:02;12.00;;;2.40;;
26040;SDS011;13816;53.628;9.950;2022-09-17T09:00:03;8.20;;;1.50;;
26040;SDS011;13816;53.628;9.950;2022-09-17T09:02:42;6.63;;;1.20;;
26040;SDS011;13816;53.628;9.950;2022-09-17T09:05:16;6.07;;;1.30;;
26040;SDS011;13816;53.628;9.950;2022-09-17T09:07:47;5.80;;;1.87;;
26040;SDS011;13816;53.628;9.950;2022-09-17T09:10:25;8.27;;;1.30;;
26040;SDS011;13816;53.628;9.950;2022-09-17T10:13:27;5.07;;;1.30;;
26040;SDS011;13816;53.628;9.950;2022-09-17T10:16:03;10.80;;;1.60;;
26040;SDS011;13816;53.628;9.950;2022-09-17T10:18:44;6.30;;;2.33;;
26040;SDS011;13816;53.628;9.950;2022-09-17T10:21:30;4.97;;;1.37;;
26040;SDS011;13816;53.628;9.950;2022-09-17T10:24:03;6.40;;;1.27;;
26040;SDS011;13816;53.628;9.950;2022-09-17T10:26:38;8.43;;;1.30;;
26040;SDS011;13816;53.628;9.950;2022-09-17T10:29:14;4.80;;;1.50;;
26040;SDS011;13816;53.628;9.950;2022-09-17T10:31:45;5.40;;;1.37;;
26040;SDS011;13816;53.628;9.950;2022-09-17T10:34:18;6.90;;;1.27;;
26040;SDS011;13816;53.628;9.950;2022-09-17T10:36:45;24.50;;;2.60;;
26040;SDS011;13816;53.628;9.950;2022-09-17T10:41:54;5.23;;;1.60;;
26040;SDS011;13816;53.628;9.950;2022-09-17T10:44:21;9.40;;;1.70;;
26040;SDS011;13816;53.628;9.950;2022-09-17T10:46:48;4.80;;;1.50;;
26040;SDS011;13816;53.628;9.950;2022-09-17T10:49:25;5.77;;;1.63;;
26040;SDS011;13816;53.628;9.950;2022-09-17T10:52:10;4.27;;;1.70;;
26040;SDS011;13816;53.628;9.950;2022-09-17T10:57:06;6.67;;;1.40;;
26040;SDS011;13816;53.628;9.950;2022-09-17T10:59:51;5.20;;;1.23;;
26040;SDS011;13816;53.628;9.950;2022-09-17T11:05:12;7.03;;;1.73;;
26040;SDS011;13816;53.628;9.950;2022-09-17T11:07:51;10.47;;;1.70;;
26040;SDS011;13816;53.628;9.950;2022-09-17T11:13:13;7.97;;;1.30;;
26040;SDS011;13816;53.628;9.950;2022-09-17T11:15:46;5.33;;;1.73;;
26040;SDS011;13816;53.628;9.950;2022-09-17T11:18:29;6.27;;;1.67;;
26040;SDS011;13816;53.628;9.950;2022-09-17T11:28:41;10.67;;;1.93;;
26040;SDS011;13816;53.628;9.950;2022-09-17T11:36:45;3.70;;;1.70;;
26040;SDS011;13816;53.628;9.950;2022-09-17T11:39:15;6.77;;;1.53;;
26040;SDS011;13816;53.628;9.950;2022-09-17T11:41:44;6.30;;;1.97;;
26040;SDS011;13816;53.628;9.950;2022-09-17T11:44:15;7.25;;;1.80;;
26040;SDS011;13816;53.628;9.950;2022-09-17T11:46:47;5.60;;;1.75;;
26040;SDS011;13816;53.628;9.950;2022-09-17T11:49:19;6.30;;;1.63;;
26040;SDS011;13816;53.628;9.950;2022-09-17T11:54:39;8.30;;;2.00;;
26040;SDS011;13816;53.628;9.950;2022-09-17T11:57:11;7.73;;;1.70;;
26040;SDS011;13816;53.628;9.950;2022-09-17T11:59:40;7.80;;;2.10;;
26040;SDS011;13816;53.628;9.950;2022-09-17T12:04:40;7.10;;;1.43;;
26040;SDS011;13816;53.628;9.950;2022-09-17T12:09:33;7.00;;;1.70;;
26040;SDS011;13816;53.628;9.950;2022-09-17T12:12:17;10.67;;;2.13;;
26040;SDS011;13816;53.628;9.950;2022-09-17T12:14:48;7.23;;;2.07;;
26040;SDS011;13816;53.628;9.950;2022-09-17T12:20:28;10.73;;;2.37;;
26040;SDS011;13816;53.628;9.950;2022-09-17T12:22:56;10.67;;;2.33;;
26040;SDS011;13816;53.628;9.950;2022-09-17T12:25:23;4.30;;;1.63;;
26040;SDS011;13816;53.628;9.950;2022-09-17T12:27:58;9.90;;;2.53;;
26040;SDS011;13816;53.628;9.950;2022-09-17T12:30:30;12.50;;;2.47;;
26040;SDS011;13816;53.628;9.950;2022-09-17T12:38:34;9.90;;;2.20;;
26040;SDS011;13816;53.628;9.950;2022-09-17T12:41:19;19.50;;;3.07;;
26040;SDS011;13816;53.628;9.950;2022-09-17T12:49:16;12.60;;;2.57;;
26040;SDS011;13816;53.628;9.950;2022-09-17T12:51:48;8.57;;;2.07;;
26040;SDS011;13816;53.628;9.950;2022-09-17T12:59:34;9.50;;;2.13;;
26040;SDS011;13816;53.628;9.950;2022-09-17T13:02:18;13.40;;;2.70;;
26040;SDS011;13816;53.628;9.950;2022-09-17T13:10:17;8.97;;;2.37;;
26040;SDS011;13816;53.628;9.950;2022-09-17T13:12:56;12.00;;;2.37;;
26040;SDS011;13816;53.628;9.950;2022-09-17T13:20:25;8.20;;;2.70;;
26040;SDS011;13816;53.628;9.950;2022-09-17T13:22:53;10.83;;;2.93;;
26040;SDS011;13816;53.628;9.950;2022-09-17T13:25:20;11.53;;;2.90;;
26040;SDS011;13816;53.628;9.950;2022-09-17T13:27:47;12.80;;;2.70;;
26040;SDS011;13816;53.628;9.950;2022-09-17T13:30:14;6.83;;;1.70;;
26040;SDS011;13816;53.628;9.950;2022-09-17T13:32:41;4.37;;;1.40;;
26040;SDS011;13816;53.628;9.950;2022-09-17T13:37:34;2.30;;;0.90;;
26040;SDS011;13816;53.628;9.950;2022-09-17T13:40:03;4.20;;;1.30;;
26040;SDS011;13816;53.628;9.950;2022-09-17T13:42:41;2.30;;;0.93;;
26040;SDS011;13816;53.628;9.950;2022-09-17T13:45:12;4.43;;;1.30;;
26040;SDS011;13816;53.628;9.950;2022-09-17T13:47:55;8.10;;;2.17;;
26040;SDS011;13816;53.628;9.950;2022-09-17T13:50:31;10.90;;;1.73;;
26040;SDS011;13816;53.628;9.950;2022-09-17T13:53:20;6.83;;;1.67;;
26040;SDS011;13816;53.628;9.950;2022-09-17T13:55:56;9.90;;;2.00;;
26040;SDS011;13816;53.628;9.950;2022-09-17T13:58:26;7.90;;;2.10;;
26040;SDS011;13816;53.628;9.950;2022-09-17T14:00:57;4.50;;;1.40;;
26040;SDS011;13816;53.628;9.950;2022-09-17T14:08:54;2.30;;;0.93;;
26040;SDS011;13816;53.628;9.950;2022-09-17T14:21:29;1.43;;;1.10;;
26040;SDS011;13816;53.628;9.950;2022-09-17T14:23:56;7.73;;;0.90;;
26040;SDS011;13816;53.628;9.950;2022-09-17T14:29:14;4.67;;;0.73;;
26040;SDS011;13816;53.628;9.950;2022-09-17T14:31:44;3.93;;;1.00;;
26040;SDS011;13816;53.628;9.950;2022-09-17T14:34:14;6.87;;;1.33;;
26040;SDS011;13816;53.628;9.950;2022-09-17T14:36:43;9.27;;;1.27;;
26040;SDS011;13816;53.628;9.950;2022-09-17T14:39:12;3.73;;;0.90;;
26040;SDS011;13816;53.628;9.950;2022-09-17T14:41:40;3.10;;;1.00;;
26040;SDS011;13816;53.628;9.950;2022-09-17T14:46:42;2.20;;;0.70;;
26040;SDS011;13816;53.628;9.950;2022-09-17T14:51:39;5.97;;;2.20;;
26040;SDS011;13816;53.628;9.950;2022-09-17T14:54:07;5.57;;;1.40;;
26040;SDS011;13816;53.628;9.950;2022-09-17T14:56:35;8.10;;;1.50;;
26040;SDS011;13816;53.628;9.950;2022-09-17T14:59:04;7.50;;;1.50;;
26040;SDS011;13816;53.628;9.950;2022-09-17T15:01:31;2.63;;;1.13;;
26040;SDS011;13816;53.628;9.950;2022-09-17T15:06:38;5.40;;;1.37;;
26040;SDS011;13816;53.628;9.950;2022-09-17T15:09:05;6.20;;;1.80;;
26040;SDS011;13816;53.628;9.950;2022-09-17T15:11:39;5.40;;;1.67;;
26040;SDS011;13816;53.628;9.950;2022-09-17T15:14:11;7.73;;;1.70;;
26040;SDS011;13816;53.628;9.950;2022-09-17T15:16:43;4.43;;;1.80;;
26040;SDS011;13816;53.628;9.950;2022-09-17T15:19:11;6.53;;;1.63;;
26040;SDS011;13816;53.628;9.950;2022-09-17T15:21:44;4.37;;;1.83;;
26040;SDS011;13816;53.628;9.950;2022-09-17T15:24:16;6.70;;;1.70;;
26040;SDS011;13816;53.628;9.950;2022-09-17T15:26:44;3.07;;;1.53;;
26040;SDS011;13816;53.628;9.950;2022-09-17T15:29:15;3.30;;;0.90;;
26040;SDS011;13816;53.628;9.950;2022-09-17T15:31:43;5.40;;;1.27;;
26040;SDS011;13816;53.628;9.950;2022-09-17T15:34:10;4.63;;;1.13;;
26040;SDS011;13816;53.628;9.950;2022-09-17T15:36:36;4.07;;;1.37;;
26040;SDS011;13816;53.628;9.950;2022-09-17T15:39:27;1.93;;;1.00;;
26040;SDS011;13816;53.628;9.950;2022-09-17T15:42:01;4.40;;;1.10;;
26040;SDS011;13816;53.628;9.950;2022-09-17T15:44:27;6.70;;;1.63;;
26040;SDS011;13816;53.628;9.950;2022-09-17T15:46:53;7.77;;;1.53;;
26040;SDS011;13816;53.628;9.950;2022-09-17T15:49:30;7.47;;;2.13;;
26040;SDS011;13816;53.628;9.950;2022-09-17T15:54:43;5.03;;;1.13;;
26040;SDS011;13816;53.628;9.950;2022-09-17T15:57:11;3.67;;;1.30;;
26040;SDS011;13816;53.628;9.950;2022-09-17T15:59:38;5.00;;;1.40;;
26040;SDS011;13816;53.628;9.950;2022-09-17T16:02:04;5.30;;;1.43;;
26040;SDS011;13816;53.628;9.950;2022-09-17T16:04:31;3.83;;;1.43;;
26040;SDS011;13816;53.628;9.950;2022-09-17T16:06:59;9.30;;;1.50;;
26040;SDS011;13816;53.628;9.950;2022-09-17T16:12:00;4.73;;;1.47;;
26040;SDS011;13816;53.628;9.950;2022-09-17T16:14:27;5.93;;;1.30;;
26040;SDS011;13816;53.628;9.950;2022-09-17T16:16:53;5.17;;;1.73;;
26040;SDS011;13816;53.628;9.950;2022-09-17T16:19:20;3.80;;;1.50;;
26040;SDS011;13816;53.628;9.950;2022-09-17T16:21:46;4.80;;;2.20;;
26040;SDS011;13816;53.628;9.950;2022-09-17T16:24:13;7.20;;;1.67;;
26040;SDS011;13816;53.628;9.950;2022-09-17T16:26:39;4.67;;;1.53;;
26040;SDS011;13816;53.628;9.950;2022-09-17T16:29:13;4.67;;;1.37;;
26040;SDS011;13816;53.628;9.950;2022-09-17T16:31:39;5.07;;;1.50;;
26040;SDS011;13816;53.628;9.950;2022-09-17T16:34:05;2.90;;;1.30;;
26040;SDS011;13816;53.628;9.950;2022-09-17T16:36:32;7.13;;;1.77;;
26040;SDS011;13816;53.628;9.950;2022-09-17T16:38:58;2.63;;;1.17;;
26040;SDS011;13816;53.628;9.950;2022-09-17T16:41:30;4.97;;;1.20;;
26040;SDS011;13816;53.628;9.950;2022-09-17T16:43:56;1.70;;;1.10;;
26040;SDS011;13816;53.628;9.950;2022-09-17T16:46:22;2.60;;;1.10;;
26040;SDS011;13816;53.628;9.950;2022-09-17T16:48:53;3.97;;;1.40;;
26040;SDS011;13816;53.628;9.950;2022-09-17T16:51:31;5.90;;;1.70;;
26040;SDS011;13816;53.628;9.950;2022-09-17T16:53:57;3.60;;;1.00;;
26040;SDS011;13816;53.628;9.950;2022-09-17T16:56:28;3.80;;;1.40;;
26040;SDS011;13816;53.628;9.950;2022-09-17T16:58:55;2.87;;;1.17;;
26040;SDS011;13816;53.628;9.950;2022-09-17T17:01:22;4.30;;;1.93;;
26040;SDS011;13816;53.628;9.950;2022-09-17T17:03:51;6.60;;;1.40;;
26040;SDS011;13816;53.628;9.950;2022-09-17T17:06:18;3.93;;;1.30;;
26040;SDS011;13816;53.628;9.950;2022-09-17T17:08:45;3.13;;;1.17;;
26040;SDS011;13816;53.628;9.950;2022-09-17T17:11:20;2.97;;;1.30;;
26040;SDS011;13816;53.628;9.950;2022-09-17T17:13:46;4.83;;;1.10;;
26040;SDS011;13816;53.628;9.950;2022-09-17T17:16:13;4.20;;;1.40;;
26040;SDS011;13816;53.628;9.950;2022-09-17T17:18:43;2.50;;;1.30;;
26040;SDS011;13816;53.628;9.950;2022-09-17T17:21:10;3.23;;;1.17;;
26040;SDS011;13816;53.628;9.950;2022-09-17T17:23:36;5.37;;;1.60;;
26040;SDS011;13816;53.628;9.950;2022-09-17T17:26:03;3.53;;;1.23;;
26040;SDS011;13816;53.628;9.950;2022-09-17T17:28:32;2.40;;;1.20;;
26040;SDS011;13816;53.628;9.950;2022-09-17T17:31:02;4.07;;;1.30;;
26040;SDS011;13816;53.628;9.950;2022-09-17T17:33:29;5.33;;;1.87;;
26040;SDS011;13816;53.628;9.950;2022-09-17T17:35:58;3.13;;;1.40;;
26040;SDS011;13816;53.628;9.950;2022-09-17T17:38:24;3.63;;;1.40;;
26040;SDS011;13816;53.628;9.950;2022-09-17T17:41:04;2.93;;;1.13;;
26040;SDS011;13816;53.628;9.950;2022-09-17T17:43:31;5.97;;;1.70;;
26040;SDS011;13816;53.628;9.950;2022-09-17T17:45:57;4.77;;;1.70;;
26040;SDS011;13816;53.628;9.950;2022-09-17T17:48:23;2.70;;;1.10;;
26040;SDS011;13816;53.628;9.950;2022-09-17T17:50:49;4.03;;;2.10;;
26040;SDS011;13816;53.628;9.950;2022-09-17T17:53:16;6.20;;;1.67;;
26040;SDS011;13816;53.628;9.950;2022-09-17T17:55:42;4.10;;;1.90;;
26040;SDS011;13816;53.628;9.950;2022-09-17T17:58:08;6.37;;;1.67;;
26040;SDS011;13816;53.628;9.950;2022-09-17T18:00:34;3.60;;;1.30;;
26040;SDS011;13816;53.628;9.950;2022-09-17T18:03:00;5.50;;;1.67;;
26040;SDS011;13816;53.628;9.950;2022-09-17T18:05:26;7.28;;;1.80;;
26040;SDS011;13816;53.628;9.950;2022-09-17T18:07:52;6.30;;;1.67;;
26040;SDS011;13816;53.628;9.950;2022-09-17T18:10:18;4.20;;;1.77;;
26040;SDS011;13816;53.628;9.950;2022-09-17T18:12:47;3.30;;;1.40;;
26040;SDS011;13816;53.628;9.950;2022-09-17T18:15:14;3.03;;;1.40;;
26040;SDS011;13816;53.628;9.950;2022-09-17T18:17:41;3.70;;;1.50;;
26040;SDS011;13816;53.628;9.950;2022-09-17T18:20:07;5.10;;;1.50;;
26040;SDS011;13816;53.628;9.950;2022-09-17T18:22:34;7.03;;;2.30;;
26040;SDS011;13816;53.628;9.950;2022-09-17T18:25:00;7.03;;;1.90;;
26040;SDS011;13816;53.628;9.950;2022-09-17T18:27:26;7.40;;;1.97;;
26040;SDS011;13816;53.628;9.950;2022-09-17T18:29:52;4.20;;;1.80;;
26040;SDS011;13816;53.628;9.950;2022-09-17T18:32:20;5.83;;;2.17;;
26040;SDS011;13816;53.628;9.950;2022-09-17T18:34:46;4.37;;;2.33;;
26040;SDS011;13816;53.628;9.950;2022-09-17T18:37:12;5.37;;;2.47;;
26040;SDS011;13816;53.628;9.950;2022-09-17T18:39:38;5.17;;;2.47;;
26040;SDS011;13816;53.628;9.950;2022-09-17T18:42:04;6.50;;;2.67;;
26040;SDS011;13816;53.628;9.950;2022-09-17T18:44:30;5.50;;;2.23;;
26040;SDS011;13816;53.628;9.950;2022-09-17T18:46:56;3.73;;;1.87;;
26040;SDS011;13816;53.628;9.950;2022-09-17T18:49:22;7.10;;;2.60;;
26040;SDS011;13816;53.628;9.950;2022-09-17T18:51:49;7.23;;;2.73;;
26040;SDS011;13816;53.628;9.950;2022-09-17T18:54:15;3.93;;;2.03;;
26040;SDS011;13816;53.628;9.950;2022-09-17T18:56:46;10.23;;;2.50;;
26040;SDS011;13816;53.628;9.950;2022-09-17T18:59:18;5.27;;;2.40;;
26040;SDS011;13816;53.628;9.950;2022-09-17T19:01:44;8.10;;;2.30;;
26040;SDS011;13816;53.628;9.950;2022-09-17T19:04:13;10.83;;;3.10;;
26040;SDS011;13816;53.628;9.950;2022-09-17T19:06:42;15.00;;;3.07;;
26040;SDS011;13816;53.628;9.950;2022-09-17T19:09:08;17.07;;;3.07;;
26040;SDS011;13816;53.628;9.950;2022-09-17T19:11:35;13.38;;;2.88;;
26040;SDS011;13816;53.628;9.950;2022-09-17T19:14:02;18.73;;;3.57;;
26040;SDS011;13816;53.628;9.950;2022-09-17T19:16:28;9.53;;;2.83;;
26040;SDS011;13816;53.628;9.950;2022-09-17T19:18:57;11.53;;;2.87;;
26040;SDS011;13816;53.628;9.950;2022-09-17T19:21:23;11.37;;;3.57;;
26040;SDS011;13816;53.628;9.950;2022-09-17T19:23:50;11.53;;;2.87;;
26040;SDS011;13816;53.628;9.950;2022-09-17T19:26:17;14.60;;;3.43;;
26040;SDS011;13816;53.628;9.950;2022-09-17T19:28:43;13.97;;;3.10;;
26040;SDS011;13816;53.628;9.950;2022-09-17T19:31:10;15.63;;;4.03;;
26040;SDS011;13816;53.628;9.950;2022-09-17T19:33:37;22.17;;;4.00;;
26040;SDS011;13816;53.628;9.950;2022-09-17T19:36:04;22.03;;;3.70;;
26040;SDS011;13816;53.628;9.950;2022-09-17T19:38:31;19.70;;;4.10;;
26040;SDS011;13816;53.628;9.950;2022-09-17T19:40:57;15.27;;;3.43;;
26040;SDS011;13816;53.628;9.950;2022-09-17T19:43:24;14.37;;;3.10;;
26040;SDS011;13816;53.628;9.950;2022-09-17T19:45:51;14.90;;;3.20;;
26040;SDS011;13816;53.628;9.950;2022-09-17T19:48:20;17.50;;;3.30;;
26040;SDS011;13816;53.628;9.950;2022-09-17T19:50:52;19.13;;;3.13;;
26040;SDS011;13816;53.628;9.950;2022-09-17T19:53:19;11.40;;;3.80;;
26040;SDS011;13816;53.628;9.950;2022-09-17T19:55:45;17.13;;;3.70;;
26040;SDS011;13816;53.628;9.950;2022-09-17T19:58:12;25.23;;;4.60;;
26040;SDS011;13816;53.628;9.950;2022-09-17T20:00:38;19.87;;;3.40;;
26040;SDS011;13816;53.628;9.950;2022-09-17T20:03:04;18.10;;;5.47;;
26040;SDS011;13816;53.628;9.950;2022-09-17T20:05:30;16.60;;;3.00;;
26040;SDS011;13816;53.628;9.950;2022-09-17T20:07:58;10.20;;;3.17;;
26040;SDS011;13816;53.628;9.950;2022-09-17T20:10:24;11.83;;;2.43;;
26040;SDS011;13816;53.628;9.950;2022-09-17T20:12:50;10.50;;;3.20;;
26040;SDS011;13816;53.628;9.950;2022-09-17T20:15:16;8.50;;;2.20;;
26040;SDS011;13816;53.628;9.950;2022-09-17T20:17:43;13.13;;;3.03;;
26040;SDS011;13816;53.628;9.950;2022-09-17T20:20:09;22.30;;;3.57;;
26040;SDS011;13816;53.628;9.950;2022-09-17T20:22:35;16.73;;;2.60;;
26040;SDS011;13816;53.628;9.950;2022-09-17T20:25:01;21.77;;;3.80;;
26040;SDS011;13816;53.628;9.950;2022-09-17T20:27:30;16.97;;;2.80;;
26040;SDS011;13816;53.628;9.950;2022-09-17T20:29:57;18.17;;;4.10;;
26040;SDS011;13816;53.628;9.950;2022-09-17T20:32:23;15.33;;;3.40;;
26040;SDS011;13816;53.628;9.950;2022-09-17T20:34:49;23.80;;;4.30;;
26040;SDS011;13816;53.628;9.950;2022-09-17T20:37:15;10.50;;;2.70;;
26040;SDS011;13816;53.628;9.950;2022-09-17T20:39:41;13.50;;;3.30;;
26040;SDS011;13816;53.628;9.950;2022-09-17T20:42:08;17.13;;;3.00;;
26040;SDS011;13816;53.628;9.950;2022-09-17T20:44:34;10.57;;;2.43;;
26040;SDS011;13816;53.628;9.950;2022-09-17T20:47:00;13.60;;;3.00;;
26040;SDS011;13816;53.628;9.950;2022-09-17T20:49:26;12.70;;;2.80;;
26040;SDS011;13816;53.628;9.950;2022-09-17T20:51:52;20.87;;;3.13;;
26040;SDS011;13816;53.628;9.950;2022-09-17T20:54:18;15.53;;;3.13;;
26040;SDS011;13816;53.628;9.950;2022-09-17T20:56:44;19.63;;;3.60;;
26040;SDS011;13816;53.628;9.950;2022-09-17T20:59:11;20.23;;;3.60;;
26040;SDS011;13816;53.628;9.950;2022-09-17T21:01:42;18.83;;;3.60;;
26040;SDS011;13816;53.628;9.950;2022-09-17T21:04:09;12.47;;;2.83;;
26040;SDS011;13816;53.628;9.950;2022-09-17T21:06:37;14.77;;;2.83;;
26040;SDS011;13816;53.628;9.950;2022-09-17T21:09:04;16.87;;;3.90;;
26040;SDS011;13816;53.628;9.950;2022-09-17T21:11:30;15.63;;;2.83;;
26040;SDS011;13816;53.628;9.950;2022-09-17T21:13:58;14.07;;;3.17;;
26040;SDS011;13816;53.628;9.950;2022-09-17T21:16:24;12.73;;;3.37;;
26040;SDS011;13816;53.628;9.950;2022-09-17T21:18:55;13.13;;;3.27;;
26040;SDS011;13816;53.628;9.950;2022-09-17T21:21:22;16.07;;;2.50;;
26040;SDS011;13816;53.628;9.950;2022-09-17T21:23:48;16.50;;;2.83;;
26040;SDS011;13816;53.628;9.950;2022-09-17T21:26:18;13.70;;;3.20;;
26040;SDS011;13816;53.628;9.950;2022-09-17T21:28:45;17.67;;;3.07;;
26040;SDS011;13816;53.628;9.950;2022-09-17T21:31:19;10.20;;;2.30;;
26040;SDS011;13816;53.628;9.950;2022-09-17T21:33:46;11.13;;;2.40;;
26040;SDS011;13816;53.628;9.950;2022-09-17T21:36:16;13.23;;;2.80;;
26040;SDS011;13816;53.628;9.950;2022-09-17T21:38:42;13.50;;;2.10;;
26040;SDS011;13816;53.628;9.950;2022-09-17T21:41:09;11.77;;;3.17;;
26040;SDS011;13816;53.628;9.950;2022-09-17T21:43:37;14.37;;;2.47;;
26040;SDS011;13816;53.628;9.950;2022-09-17T21:46:04;8.47;;;2.60;;
26040;SDS011;13816;53.628;9.950;2022-09-17T21:48:30;11.10;;;2.57;;
26040;SDS011;13816;53.628;9.950;2022-09-17T21:51:03;10.37;;;2.97;;
26040;SDS011;13816;53.628;9.950;2022-09-17T21:53:30;10.07;;;2.80;;
26040;SDS011;13816;53.628;9.950;2022-09-17T21:55:59;10.53;;;2.60;;
26040;SDS011;13816;53.628;9.950;2022-09-17T21:58:26;14.73;;;3.37;;
26040;SDS011;13816;53.628;9.950;2022-09-17T22:00:52;6.70;;;2.00;;
26040;SDS011;13816;53.628;9.950;2022-09-17T22:03:18;12.40;;;2.63;;
26040;SDS011;13816;53.628;9.950;2022-09-17T22:05:45;9.70;;;2.67;;
26040;SDS011;13816;53.628;9.950;2022-09-17T22:08:12;9.53;;;2.60;;
26040;SDS011;13816;53.628;9.950;2022-09-17T22:10:38;17.17;;;3.60;;
26040;SDS011;13816;53.628;9.950;2022-09-17T22:13:04;14.70;;;3.50;;
26040;SDS011;13816;53.628;9.950;2022-09-17T22:15:30;17.53;;;3.70;;
26040;SDS011;13816;53.628;9.950;2022-09-17T22:17:56;13.77;;;3.53;;
26040;SDS011;13816;53.628;9.950;2022-09-17T22:20:22;16.83;;;3.90;;
26040;SDS011;13816;53.628;9.950;2022-09-17T22:22:49;16.03;;;2.90;;
26040;SDS011;13816;53.628;9.950;2022-09-17T22:25:16;11.47;;;3.23;;
26040;SDS011;13816;53.628;9.950;2022-09-17T22:27:42;13.50;;;2.50;;
26040;SDS011;13816;53.628;9.950;2022-09-17T22:30:08;11.23;;;2.63;;
26040;SDS011;13816;53.628;9.950;2022-09-17T22:32:34;6.50;;;1.97;;
26040;SDS011;13816;53.628;9.950;2022-09-17T22:35:00;12.37;;;2.30;;
26040;SDS011;13816;53.628;9.950;2022-09-17T22:37:27;17.63;;;3.40;;
26040;SDS011;13816;53.628;9.950;2022-09-17T22:39:53;9.63;;;2.03;;
26040;SDS011;13816;53.628;9.950;2022-09-17T22:42:19;16.30;;;1.70;;
26040;SDS011;13816;53.628;9.950;2022-09-17T22:44:45;11.00;;;2.50;;
26040;SDS011;13816;53.628;9.950;2022-09-17T22:47:11;9.23;;;2.20;;
26040;SDS011;13816;53.628;9.950;2022-09-17T22:49:37;11.13;;;2.63;;
26040;SDS011;13816;53.628;9.950;2022-09-17T22:52:03;8.10;;;2.00;;
26040;SDS011;13816;53.628;9.950;2022-09-17T22:54:29;9.47;;;2.50;;
26040;SDS011;13816;53.628;9.950;2022-09-17T22:56:55;11.53;;;1.97;;
26040;SDS011;13816;53.628;9.950;2022-09-17T22:59:21;10.80;;;2.20;;
26040;SDS011;13816;53.628;9.950;2022-09-17T23:01:47;14.60;;;2.10;;
26040;SDS011;13816;53.628;9.950;2022-09-17T23:04:13;11.57;;;1.80;;
26040;SDS011;13816;53.628;9.950;2022-09-17T23:06:39;14.60;;;2.20;;
26040;SDS011;13816;53.628;9.950;2022-09-17T23:09:10;10.40;;;1.90;;
26040;SDS011;13816;53.628;9.950;2022-09-17T23:11:37;5.37;;;1.77;;
26040;SDS011;13816;53.628;9.950;2022-09-17T23:14:04;13.30;;;2.90;;
26040;SDS011;13816;53.628;9.950;2022-09-17T23:16:38;13.73;;;2.50;;
26040;SDS011;13816;53.628;9.950;2022-09-17T23:19:04;11.37;;;2.87;;
26040;SDS011;13816;53.628;9.950;2022-09-17T23:21:30;15.57;;;2.93;;
26040;SDS011;13816;53.628;9.950;2022-09-17T23:23:56;9.37;;;2.50;;
26040;SDS011;13816;53.628;9.950;2022-09-17T23:26:23;12.40;;;2.53;;
26040;SDS011;13816;53.628;9.950;2022-09-17T23:28:50;10.33;;;2.10;;
26040;SDS011;13816;53.628;9.950;2022-09-17T23:31:17;11.77;;;2.57;;
26040;SDS011;13816;53.628;9.950;2022-09-17T23:33:43;12.10;;;3.10;;
26040;SDS011;13816;53.628;9.950;2022-09-17T23:36:11;13.37;;;3.00;;
26040;SDS011;13816;53.628;9.950;2022-09-17T23:38:38;15.90;;;2.73;;
26040;SDS011;13816;53.628;9.950;2022-09-17T23:41:12;17.87;;;4.00;;
26040;SDS011;13816;53.628;9.950;2022-09-17T23:43:39;20.63;;;4.43;;
26040;SDS011;13816;53.628;9.950;2022-09-17T23:46:05;10.90;;;2.20;;
26040;SDS011;13816;53.628;9.950;2022-09-17T23:48:31;10.17;;;2.20;;
26040;SDS011;13816;53.628;9.950;2022-09-17T23:50:57;15.40;;;2.83;;
26040;SDS011;13816;53.628;9.950;2022-09-17T23:53:23;17.53;;;3.10;;
26040;SDS011;13816;53.628;9.950;2022-09-17T23:55:50;19.50;;;3.43;;
26040;SDS011;13816;53.628;9.950;2022-09-17T23:58:16;13.00;;;3.07;;
